Terminal Aerodrome Forecast
Issued by NWS

Home | Current Version | Previous Version | Text Only | Print | Product List | Glossary On
Versions: 1 2 3 4 5 6 7 8 9 10 11 12 13 14 15 16 17 18 19 20 21 22 23 24 25 26 27 28 29 30 31
000
FTUS43 KLOT 011544 AAB
TAFORD
TAF AMD
KORD 011544Z 0116/0218 29010KT P6SM SCT080
     FM011700 29012G18KT P6SM FEW080 SCT200
     FM020200 26008KT P6SM SCT200
     FM020900 23011KT P6SM SCT060 BKN200
     FM021500 23014G24KT P6SM VCSH SCT080 BKN200 PROB30 0216/0218
      3SM TS BKN040CB=

USA.gov is the U.S. government's official web portal to all federal, state and local government web resources and services.